Time;durP1;ratioP1;P1;durP2;ratioP2;P2;SDS_P1;SDS_P2;PMS_P1;PMS_P2;Temp;Humidity;BMP_temperature;BMP_pressure;BME280_temperature;BME280_humidity;BME280_pressure;Samples;Min_cycle;Max_cycle;Signal;HPM_P1;HPM_P2
2022/01/11 00:00:44;;;;;;;;;8.00;6.25;;;;;20.45;33.74;102386.22;5037326;28;45412;-56
2022/01/11 00:03:10;;;;;;;;;7.50;7.00;;;;;20.43;33.34;102388.88;5036766;28;45429;-53
2022/01/11 00:05:43;;;;;;;;;9.75;7.50;;;;;20.41;33.36;102385.41;5037185;28;45281;-57
2022/01/11 00:08:09;;;;;;;;;8.25;7.50;;;;;20.38;33.58;102378.47;5037084;28;45513;-51
2022/01/11 00:10:47;;;;;;;;;9.00;8.00;;;;;20.37;33.60;102379.38;5037576;28;45202;-57
2022/01/11 00:13:13;;;;;;;;;9.25;9.25;;;;;20.34;33.73;102378.63;5036826;28;45528;-58
2022/01/11 00:15:38;;;;;;;;;7.25;7.25;;;;;20.32;33.39;102383.06;5037141;28;45277;-57
2022/01/11 00:18:04;;;;;;;;;7.25;7.25;;;;;20.31;33.73;102390.13;5037099;28;45862;-58
2022/01/11 00:20:29;;;;;;;;;9.75;8.00;;;;;20.29;33.73;102394.56;5037141;28;45637;-50
2022/01/11 00:25:28;;;;;;;;;8.50;7.25;;;;;20.25;33.72;102387.66;5036849;28;45503;-53
2022/01/11 00:27:54;;;;;;;;;5.75;5.75;;;;;20.25;33.68;102403.44;5036732;28;45458;-52
2022/01/11 00:30:21;;;;;;;;;8.75;8.00;;;;;20.22;33.74;102400.94;5036908;28;45407;-54
2022/01/11 00:32:51;;;;;;;;;7.75;6.50;;;;;20.20;33.45;102393.06;5036388;28;46647;-53
2022/01/11 00:35:21;;;;;;;;;8.75;5.75;;;;;20.20;33.51;102397.47;5036577;28;45858;-58
2022/01/11 00:37:47;;;;;;;;;6.75;6.75;;;;;20.17;33.49;102387.91;5036513;28;45468;-53
2022/01/11 00:40:12;;;;;;;;;7.50;7.00;;;;;20.17;33.30;102393.16;5036811;28;45543;-54
2022/01/11 00:42:38;;;;;;;;;7.50;6.00;;;;;20.15;33.57;102389.72;5036562;28;46308;-57
2022/01/11 00:45:06;;;;;;;;;7.50;7.50;;;;;20.15;33.92;102388.81;5036386;28;45379;-57
2022/01/11 00:47:32;;;;;;;;;10.25;10.25;;;;;20.14;33.62;102397.63;5018564;28;45364;-58
2022/01/11 00:49:57;;;;;;;;;8.00;7.00;;;;;20.11;33.62;102392.47;5036704;28;45348;-58
2022/01/11 00:52:23;;;;;;;;;8.00;6.75;;;;;20.10;33.77;102394.22;5018342;28;46048;-58
2022/01/11 00:54:49;;;;;;;;;7.25;7.25;;;;;20.10;33.49;102403.91;5036263;28;45381;-58
2022/01/11 00:57:14;;;;;;;;;6.00;6.00;;;;;20.08;33.93;102398.66;5018457;28;45336;-58
2022/01/11 00:59:40;;;;;;;;;6.50;5.75;;;;;20.07;33.52;102396.94;5036679;28;45483;-58
2022/01/11 01:02:06;;;;;;;;;7.25;6.00;;;;;20.07;34.04;102394.31;5036168;28;45430;-56
2022/01/11 01:04:32;;;;;;;;;6.00;6.00;;;;;20.05;33.59;102394.38;5036186;28;45891;-59
2022/01/11 01:06:57;;;;;;;;;7.75;7.75;;;;;20.03;34.02;102401.44;5036240;28;45592;-59
2022/01/11 01:09:25;;;;;;;;;11.50;8.25;;;;;20.03;33.46;102404.06;5037357;28;45540;-58
2022/01/11 01:11:51;;;;;;;;;6.50;6.00;;;;;20.02;33.49;102398.84;5039561;28;47242;-58
2022/01/11 01:14:17;;;;;;;;;6.00;6.00;;;;;20.01;33.80;102411.13;5021819;28;45518;-54
2022/01/11 01:16:42;;;;;;;;;7.75;7.00;;;;;20.01;33.42;102412.91;5039678;28;45392;-54
2022/01/11 01:19:08;;;;;;;;;7.00;6.00;;;;;19.98;33.55;102419.13;5022222;28;45499;-57
2022/01/11 01:21:37;;;;;;;;;8.00;6.50;;;;;19.97;34.02;102421.78;5039523;28;45326;-56
2022/01/11 01:24:09;;;;;;;;;7.25;6.50;;;;;19.96;34.11;102420.94;5022380;28;45803;-57
2022/01/11 01:26:34;;;;;;;;;9.00;8.00;;;;;19.94;33.96;102414.84;5039685;28;45378;-52
2022/01/11 01:29:00;;;;;;;;;6.75;6.75;;;;;19.95;33.85;102416.59;5039652;28;45367;-51
2022/01/11 01:31:29;;;;;;;;;7.25;6.25;;;;;19.93;33.63;102408.75;5039309;28;45351;-50
2022/01/11 01:33:56;;;;;;;;;8.25;8.00;;;;;19.93;33.99;102407.88;5039291;28;45332;-53
2022/01/11 01:36:22;;;;;;;;;12.25;9.50;;;;;19.91;34.07;102401.78;5039496;28;45361;-54
2022/01/11 01:38:48;;;;;;;;;9.00;7.75;;;;;19.91;33.77;102407.03;5039465;28;45421;-55
2022/01/11 01:41:17;;;;;;;;;7.00;7.00;;;;;19.89;33.96;102414.97;5039074;28;46248;-51
2022/01/11 01:43:44;;;;;;;;;12.50;8.00;;;;;19.91;33.88;102422.81;5021547;28;45861;-49
2022/01/11 01:46:10;;;;;;;;;7.25;6.50;;;;;19.92;34.17;102424.56;5039615;28;45359;-56
2022/01/11 01:48:36;;;;;;;;;7.00;7.00;;;;;19.96;34.15;102428.84;5039488;28;45176;-54
2022/01/11 01:51:03;;;;;;;;;7.00;6.75;;;;;19.98;34.11;102428.78;5039216;28;45618;-58
2022/01/11 01:53:29;;;;;;;;;8.75;7.00;;;;;20.02;34.20;102426.03;5039016;28;45452;-58
2022/01/11 01:55:55;;;;;;;;;4.50;4.50;;;;;20.08;33.70;102431.13;5021312;28;45430;-59
2022/01/11 01:58:21;;;;;;;;;7.25;5.25;;;;;20.12;33.89;102433.69;5039397;28;45316;-58
2022/01/11 02:00:54;;;;;;;;;6.25;6.00;;;;;20.16;34.03;102436.19;5038955;28;46807;-56
2022/01/11 02:03:26;;;;;;;;;10.00;6.00;;;;;20.22;33.74;102438.63;5038851;28;45832;-60
2022/01/11 02:05:53;;;;;;;;;6.00;6.00;;;;;20.26;34.14;102428.88;5038884;28;45550;-56
2022/01/11 02:08:19;;;;;;;;;7.00;5.50;;;;;20.31;34.19;102441.91;5039086;28;45482;-54
2022/01/11 02:10:45;;;;;;;;;5.50;5.50;;;;;20.33;33.58;102446.25;5038924;28;46328;-48
2022/01/11 02:13:10;;;;;;;;;5.75;5.75;;;;;20.36;34.07;102447.91;5021202;28;45425;-53
2022/01/11 02:15:36;;;;;;;;;6.50;5.00;;;;;20.42;33.87;102449.50;5038853;28;45451;-51
2022/01/11 02:18:11;;;;;;;;;9.00;9.00;;;;;20.45;33.70;102438.88;5038870;28;45560;-55
2022/01/11 02:20:39;;;;;;;;;6.50;6.25;;;;;20.48;33.82;102444.03;5038029;28;46342;-55
2022/01/11 02:23:04;;;;;;;;;9.25;5.00;;;;;20.52;34.06;102437.78;5038570;28;45332;-51
2022/01/11 02:25:29;;;;;;;;;8.00;6.50;;;;;20.54;33.58;102441.25;5038570;28;45274;-54
2022/01/11 02:27:55;;;;;;;;;5.75;5.00;;;;;20.58;33.77;102445.50;5020749;28;45590;-53
2022/01/11 02:30:20;;;;;;;;;5.75;5.75;;;;;20.61;33.76;102444.56;5038562;28;45897;-52
2022/01/11 02:32:50;;;;;;;;;5.50;5.00;;;;;20.63;33.61;102443.59;5038609;28;45296;-52
2022/01/11 02:35:16;;;;;;;;;9.25;6.25;;;;;20.66;33.21;102447.91;5038859;28;45472;-49
2022/01/11 02:37:42;;;;;;;;;5.00;5.00;;;;;20.66;33.68;102448.78;5038914;28;45601;-56
2022/01/11 02:40:08;;;;;;;;;9.00;8.00;;;;;20.68;33.37;102449.56;5038302;28;45451;-51
2022/01/11 02:42:34;;;;;;;;;7.50;6.00;;;;;20.68;33.45;102454.84;5020556;28;45543;-50
2022/01/11 02:44:59;;;;;;;;;5.75;5.00;;;;;20.72;33.68;102457.41;5038341;28;45290;-49
2022/01/11 02:47:24;;;;;;;;;6.00;6.00;;;;;20.70;33.18;102453.03;5038351;28;45525;-51
2022/01/11 02:49:50;;;;;;;;;6.00;6.00;;;;;20.72;33.24;102462.66;5038102;28;45437;-51
2022/01/11 02:52:15;;;;;;;;;6.75;6.75;;;;;20.73;33.35;102456.47;5038468;28;45224;-53
2022/01/11 02:54:40;;;;;;;;;5.75;5.75;;;;;20.72;33.45;102447.72;5038250;28;45255;-57
2022/01/11 02:57:06;;;;;;;;;5.50;5.25;;;;;20.73;33.22;102446.78;5038298;28;45381;-51
2022/01/11 02:59:31;;;;;;;;;8.00;8.00;;;;;20.74;33.35;102445.03;5037946;28;45352;-55
2022/01/11 03:01:56;;;;;;;;;6.25;5.25;;;;;20.73;33.49;102453.84;5037912;28;45448;-56
2022/01/11 03:04:24;;;;;;;;;7.00;6.00;;;;;20.72;33.52;102458.28;5037982;28;45452;-54
2022/01/11 03:06:49;;;;;;;;;7.00;7.00;;;;;20.72;33.00;102460.03;5038038;28;45448;-54
2022/01/11 03:09:14;;;;;;;;;6.75;6.75;;;;;20.72;32.81;102457.41;5037988;28;45507;-54
2022/01/11 03:11:40;;;;;;;;;8.00;5.75;;;;;20.70;33.49;102460.94;5037907;28;45453;-56
2022/01/11 03:14:06;;;;;;;;;5.25;5.25;;;;;20.71;32.99;102456.53;5038009;28;45433;-58
2022/01/11 03:16:31;;;;;;;;;2.25;2.25;;;;;20.70;32.99;102468.84;5038143;28;45486;-55
2022/01/11 03:18:57;;;;;;;;;7.00;6.00;;;;;20.69;33.11;102469.75;5037732;28;46118;-57
2022/01/11 03:21:22;;;;;;;;;4.50;4.25;;;;;20.69;32.98;102466.25;5037689;28;45269;-59
2022/01/11 03:23:48;;;;;;;;;5.50;5.50;;;;;20.69;32.99;102468.91;5038133;28;45361;-59
2022/01/11 03:26:13;;;;;;;;;5.25;5.25;;;;;20.67;33.02;102463.66;5038057;28;45638;-59
2022/01/11 03:28:39;;;;;;;;;9.50;5.75;;;;;20.67;33.06;102471.56;5037646;28;45288;-58
2022/01/11 03:31:04;;;;;;;;;6.00;6.00;;;;;20.65;33.08;102470.75;5037400;28;45256;-58
2022/01/11 03:33:29;;;;;;;;;5.75;5.75;;;;;20.64;32.84;102482.22;5036793;28;45367;-59
2022/01/11 03:35:55;;;;;;;;;8.75;6.50;;;;;20.64;32.90;102486.59;5037657;28;45499;-58
2022/01/11 03:38:22;;;;;;;;;11.00;6.25;;;;;20.61;33.14;102487.56;5037330;28;45345;-57
2022/01/11 03:40:51;;;;;;;;;4.75;4.75;;;;;20.60;33.11;102488.47;5037773;28;45470;-58
2022/01/11 03:43:21;;;;;;;;;5.75;5.00;;;;;20.59;32.99;102481.47;5037858;28;45364;-53
2022/01/11 03:45:46;;;;;;;;;5.50;5.00;;;;;20.57;33.02;102474.53;5020040;28;45573;-56
2022/01/11 03:48:15;;;;;;;;;6.50;5.75;;;;;20.55;32.83;102477.22;5019021;28;47343;-58
2022/01/11 03:50:40;;;;;;;;;4.00;4.00;;;;;20.53;32.81;102479.03;5019328;28;45761;-57
2022/01/11 03:53:12;;;;;;;;;7.00;6.00;;;;;20.52;32.90;102483.41;5037335;28;45400;-54
2022/01/11 03:58:17;;;;;;;;;7.50;6.00;;;;;20.51;33.19;102496.63;5037277;28;46087;-59
2022/01/11 04:00:44;;;;;;;;;7.00;6.00;;;;;20.47;32.82;102505.53;5036896;28;45855;-55
2022/01/11 04:03:10;;;;;;;;;7.00;6.00;;;;;20.46;33.74;102493.25;5037173;28;45265;-59
2022/01/11 04:05:36;;;;;;;;;3.25;3.25;;;;;20.44;32.85;102487.19;5037283;28;45615;-58
2022/01/11 04:08:02;;;;;;;;;6.25;4.50;;;;;20.43;33.24;102483.69;5036559;28;46398;-59
2022/01/11 04:10:28;;;;;;;;;7.75;6.00;;;;;20.39;33.25;102479.44;5036795;28;45879;-59
2022/01/11 04:12:53;;;;;;;;;6.75;5.00;;;;;20.38;33.44;102483.81;5002667;28;45725;-58
2022/01/11 04:15:19;;;;;;;;;6.00;6.00;;;;;20.37;33.40;102482.09;5037311;28;45271;-59
2022/01/11 04:17:45;;;;;;;;;5.00;5.00;;;;;20.34;33.27;102482.16;5036707;28;46343;-56
2022/01/11 04:20:11;;;;;;;;;5.25;5.00;;;;;20.33;33.54;102474.31;5036877;28;45329;-57
2022/01/11 04:22:36;;;;;;;;;6.75;5.75;;;;;20.30;33.28;102472.66;5036770;28;45380;-59
2022/01/11 04:25:02;;;;;;;;;4.75;4.25;;;;;20.29;33.31;102478.81;5036993;28;45719;-58
2022/01/11 04:27:28;;;;;;;;;5.00;5.00;;;;;20.27;33.02;102482.41;5036454;28;46712;-59
2022/01/11 04:29:53;;;;;;;;;7.75;6.25;;;;;20.27;33.10;102482.41;5036589;28;45282;-56
2022/01/11 04:32:19;;;;;;;;;6.00;6.00;;;;;20.24;33.27;102488.59;5037020;28;45410;-57
2022/01/11 04:34:44;;;;;;;;;4.00;4.00;;;;;20.23;33.47;102494.78;5036827;28;45232;-57
2022/01/11 04:37:09;;;;;;;;;7.50;7.00;;;;;20.20;33.14;102492.25;5036332;28;46351;-59
2022/01/11 04:39:35;;;;;;;;;7.00;6.75;;;;;20.19;33.21;102491.38;5036457;28;45398;-59
2022/01/11 04:42:00;;;;;;;;;6.75;5.25;;;;;20.17;32.99;102498.47;5036676;28;45340;-56
2022/01/11 04:44:26;;;;;;;;;5.50;5.50;;;;;20.18;33.35;102488.78;5036231;28;45163;-58
2022/01/11 04:46:51;;;;;;;;;5.00;5.00;;;;;20.17;33.18;102485.31;5036599;28;46270;-58
2022/01/11 04:49:16;;;;;;;;;6.75;6.50;;;;;20.19;33.21;102490.50;5036429;28;45510;-59
2022/01/11 04:51:42;;;;;;;;;5.75;5.25;;;;;20.20;33.15;102486.97;5036524;28;45494;-59
2022/01/11 04:54:09;;;;;;;;;5.50;5.50;;;;;20.24;33.11;102496.50;5036665;28;45312;-59
2022/01/11 04:56:36;;;;;;;;;7.25;6.50;;;;;20.27;33.03;102499.06;5036162;28;45635;-57
2022/01/11 04:59:01;;;;;;;;;6.25;5.00;;;;;20.30;33.15;102509.50;5036154;28;45793;-56
2022/01/11 05:01:29;;;;;;;;;6.75;5.50;;;;;20.33;33.30;102509.44;5036347;28;45269;-56
2022/01/11 05:03:54;;;;;;;;;5.50;5.50;;;;;20.35;33.59;102515.50;5036385;28;45365;-50
2022/01/11 05:06:20;;;;;;;;;4.50;4.50;;;;;20.42;33.16;102517.97;5036466;28;46533;-53
2022/01/11 05:08:45;;;;;;;;;6.50;6.00;;;;;20.44;33.49;102518.81;5035876;28;45295;-51
2022/01/11 05:11:11;;;;;;;;;5.00;5.00;;;;;20.48;33.07;102528.31;5036332;28;45329;-52
2022/01/11 05:13:36;;;;;;;;;5.75;5.00;;;;;20.51;33.04;102512.44;5036265;28;45491;-56
2022/01/11 05:16:02;;;;;;;;;7.00;6.00;;;;;20.54;33.01;102517.63;5035919;28;46260;-47
2022/01/11 05:18:29;;;;;;;;;6.25;6.25;;;;;20.58;33.10;102519.25;5036007;28;45330;-54
2022/01/11 05:20:55;;;;;;;;;4.50;4.50;;;;;20.60;33.43;102519.22;5036245;28;45394;-50
2022/01/11 05:23:20;;;;;;;;;5.50;4.50;;;;;20.64;33.23;102512.94;5036632;28;45324;-57
2022/01/11 05:25:46;;;;;;;;;5.75;5.75;;;;;20.67;32.80;102518.13;5035849;28;46627;-56
2022/01/11 05:28:11;;;;;;;;;6.25;5.00;;;;;20.68;33.13;102520.72;5035657;28;45242;-56
2022/01/11 05:30:37;;;;;;;;;6.00;5.50;;;;;20.72;32.86;102518.00;5036091;28;45241;-56
2022/01/11 05:33:03;;;;;;;;;6.75;6.75;;;;;20.73;33.31;102527.63;5036140;28;45174;-56
2022/01/11 05:35:29;;;;;;;;;7.50;7.50;;;;;20.76;33.30;102530.22;5035830;28;45364;-57
2022/01/11 05:37:54;;;;;;;;;8.00;8.00;;;;;20.78;32.76;102526.63;5036177;28;45777;-58
2022/01/11 05:40:20;;;;;;;;;14.50;14.50;;;;;20.79;31.89;102538.88;5017908;28;45233;-59
2022/01/11 05:42:49;;;;;;;;;17.75;15.25;;;;;20.63;30.70;102532.28;5036132;28;45250;-56
2022/01/11 05:45:16;;;;;;;;;21.50;18.75;;;;;20.29;30.53;102534.13;5035501;28;45464;-58
2022/01/11 05:47:41;;;;;;;;;25.25;21.00;;;;;19.68;30.16;102547.06;5035503;28;45388;-58
2022/01/11 05:50:09;;;;;;;;;20.25;20.25;;;;;18.90;30.25;102558.44;5035973;28;45336;-58
2022/01/11 05:52:36;;;;;;;;;25.75;22.50;;;;;18.16;30.88;102543.19;5035904;28;45608;-59
2022/01/11 05:55:03;;;;;;;;;22.00;18.50;;;;;17.55;31.27;102547.69;5035847;28;46259;-55
2022/01/11 05:57:28;;;;;;;;;25.50;22.50;;;;;17.04;31.78;102540.53;5038889;28;45444;-57
2022/01/11 05:59:54;;;;;;;;;22.50;21.25;;;;;16.69;32.52;102540.97;5039392;28;45408;-58
2022/01/11 06:02:19;;;;;;;;;24.75;20.75;;;;;16.51;32.75;102539.41;5039153;28;45316;-55
2022/01/11 06:04:44;;;;;;;;;21.50;18.75;;;;;16.28;32.74;102550.09;5020741;28;46352;-58
2022/01/11 06:07:10;;;;;;;;;21.25;20.00;;;;;16.04;33.28;102552.06;5038748;28;45456;-53
2022/01/11 06:09:35;;;;;;;;;17.00;15.00;;;;;16.14;33.81;102547.63;5038825;28;45278;-61
2022/01/11 06:12:00;;;;;;;;;15.00;13.50;;;;;16.47;34.10;102555.16;5039002;28;45658;-58
2022/01/11 06:14:26;;;;;;;;;12.00;10.50;;;;;16.85;34.04;102572.19;5038935;28;45548;-59
2022/01/11 06:16:52;;;;;;;;;12.50;11.00;;;;;17.18;34.16;102577.91;5020896;28;45352;-63
2022/01/11 06:19:17;;;;;;;;;11.50;10.00;;;;;17.49;33.69;102590.59;5038898;28;45399;-62
2022/01/11 06:21:42;;;;;;;;;8.75;7.50;;;;;17.73;33.73;102584.13;5038965;28;45587;-62
2022/01/11 06:24:08;;;;;;;;;7.50;7.00;;;;;17.97;33.42;102576.75;5038624;28;46504;-62
2022/01/11 06:26:34;;;;;;;;;13.50;8.00;;;;;18.20;33.34;102581.63;5038487;28;45356;-59
2022/01/11 06:29:01;;;;;;;;;10.75;10.25;;;;;18.37;33.30;102580.44;5038686;28;45301;-55
2022/01/11 06:31:27;;;;;;;;;9.00;8.50;;;;;18.49;32.90;102577.59;5039175;28;45562;-60
2022/01/11 06:33:52;;;;;;;;;7.00;7.00;;;;;18.68;33.09;102590.41;5038317;28;46577;-60
2022/01/11 06:36:19;;;;;;;;;9.00;7.25;;;;;18.80;33.01;102584.00;5038363;28;45361;-59
2022/01/11 06:38:44;;;;;;;;;9.25;7.00;;;;;18.91;32.69;102586.41;5038402;28;45531;-59
2022/01/11 06:41:10;;;;;;;;;7.00;6.50;;;;;19.00;32.56;102581.03;5038559;28;45616;-62
2022/01/11 06:43:37;;;;;;;;;8.00;7.50;;;;;19.09;32.48;102585.19;5038342;28;45637;-63
2022/01/11 06:46:03;;;;;;;;;6.50;6.50;;;;;19.16;32.65;102592.06;5038248;28;45464;-59
2022/01/11 06:48:29;;;;;;;;;6.00;5.25;;;;;19.23;32.60;102595.44;5038480;28;45276;-59
2022/01/11 06:50:54;;;;;;;;;7.00;7.00;;;;;19.29;32.72;102603.19;5038904;28;45222;-59
2022/01/11 06:53:20;;;;;;;;;9.25;7.50;;;;;19.33;32.44;102604.84;5038138;28;45345;-57
2022/01/11 06:55:45;;;;;;;;;6.25;5.25;;;;;19.37;32.52;102600.38;5038188;28;45234;-59
2022/01/11 06:58:17;;;;;;;;;3.50;3.50;;;;;19.42;32.27;102599.38;5020407;28;45353;-52
2022/01/11 07:00:43;;;;;;;;;7.50;6.25;;;;;19.46;32.71;102594.91;5038390;28;45330;-61
2022/01/11 07:03:09;;;;;;;;;6.75;5.00;;;;;19.49;32.33;102592.22;5037997;28;46562;-57
2022/01/11 07:05:34;;;;;;;;;8.50;7.00;;;;;19.51;32.57;102587.78;5038009;28;45362;-60
2022/01/11 07:07:59;;;;;;;;;7.25;7.25;;;;;19.54;32.15;102582.44;5038288;28;45680;-56
2022/01/11 07:10:25;;;;;;;;;8.25;6.00;;;;;19.58;32.26;102591.13;5038524;28;45194;-56
2022/01/11 07:12:50;;;;;;;;;5.00;5.00;;;;;19.58;32.67;102596.38;5037745;28;45375;-56
2022/01/11 07:15:15;;;;;;;;;6.25;5.00;;;;;19.61;32.53;102607.72;5037609;28;52589;-55
2022/01/11 07:17:42;;;;;;;;;6.00;6.00;;;;;19.63;32.18;102612.94;5037778;28;45202;-54
2022/01/11 07:20:08;;;;;;;;;7.00;7.00;;;;;19.63;32.59;102612.94;5037915;28;45290;-57
2022/01/11 07:22:33;;;;;;;;;7.50;6.00;;;;;19.64;32.07;102614.66;5037588;28;45362;-58
2022/01/11 07:24:58;;;;;;;;;6.50;6.00;;;;;19.64;32.30;102604.16;5037908;28;45458;-58
2022/01/11 07:27:24;;;;;;;;;6.25;6.00;;;;;19.65;32.43;102603.25;5037717;28;45419;-61
2022/01/11 07:29:49;;;;;;;;;7.00;7.00;;;;;19.65;32.29;102611.13;5037940;28;45621;-62
2022/01/11 07:32:15;;;;;;;;;10.25;10.00;;;;;19.66;32.41;102628.66;5019512;28;47480;-58
2022/01/11 07:34:40;;;;;;;;;6.00;5.50;;;;;19.65;31.98;102637.44;5019730;28;46040;-62
2022/01/11 07:37:05;;;;;;;;;5.25;5.25;;;;;19.65;31.91;102640.06;5019901;28;45711;-58
2022/01/11 07:39:31;;;;;;;;;9.25;6.00;;;;;19.64;32.24;102648.88;5037922;28;45613;-51
2022/01/11 07:41:56;;;;;;;;;10.25;6.25;;;;;19.64;32.23;102656.75;5037600;28;46596;-62
2022/01/11 07:44:22;;;;;;;;;8.00;8.00;;;;;19.63;32.19;102662.91;5019556;28;45789;-63
2022/01/11 07:46:47;;;;;;;;;6.75;6.50;;;;;19.64;32.16;102659.38;5037565;28;45209;-58
2022/01/11 07:49:13;;;;;;;;;7.25;6.25;;;;;19.63;32.34;102655.88;5037546;28;45318;-55
2022/01/11 07:51:38;;;;;;;;;10.00;7.75;;;;;19.62;32.45;102648.88;5038466;28;45257;-57
2022/01/11 07:54:04;;;;;;;;;12.25;9.00;;;;;19.62;32.42;102648.03;5037094;28;45304;-59
2022/01/11 07:56:30;;;;;;;;;10.25;8.75;;;;;19.57;32.66;102644.63;5037613;28;45333;-61
2022/01/11 07:58:55;;;;;;;;;8.75;6.00;;;;;19.62;32.46;102653.28;5037484;28;45353;-59
2022/01/11 08:01:21;;;;;;;;;7.00;7.00;;;;;19.62;32.47;102658.53;5019082;28;48088;-62
2022/01/11 08:03:46;;;;;;;;;7.75;7.75;;;;;19.60;32.19;102660.34;5037101;28;45406;-62
2022/01/11 08:06:14;;;;;;;;;8.00;6.00;;;;;19.59;32.20;102663.88;5037299;28;45320;-63
2022/01/11 08:08:39;;;;;;;;;6.25;6.25;;;;;19.59;32.12;102669.13;5036945;28;45495;-53
2022/01/11 08:11:06;;;;;;;;;7.50;6.50;;;;;19.55;32.07;102657.81;5036425;28;45676;-63
2022/01/11 08:13:31;;;;;;;;;8.00;8.00;;;;;19.55;32.46;102659.59;5037324;28;45940;-60
2022/01/11 08:15:57;;;;;;;;;8.75;7.25;;;;;19.56;32.84;102664.81;5037041;28;45332;-60
2022/01/11 08:18:23;;;;;;;;;7.75;7.75;;;;;19.54;32.81;102660.50;5036472;28;45766;-57
2022/01/11 08:20:49;;;;;;;;;8.00;7.25;;;;;19.57;32.40;102670.91;5036708;28;45750;-61
2022/01/11 08:23:15;;;;;;;;;6.50;6.50;;;;;19.57;32.24;102676.19;5018711;28;45236;-59
2022/01/11 08:25:40;;;;;;;;;11.25;8.25;;;;;19.55;32.99;102683.28;5036822;28;45383;-53
2022/01/11 08:28:07;;;;;;;;;6.75;6.50;;;;;19.57;32.45;102699.84;5036842;28;45396;-58
2022/01/11 08:30:34;;;;;;;;;6.00;6.00;;;;;19.55;32.66;102694.63;5036828;28;46354;-52
2022/01/11 08:33:00;;;;;;;;;8.50;7.00;;;;;19.56;32.82;102690.25;5036900;28;45514;-60
2022/01/11 08:35:30;;;;;;;;;8.50;7.00;;;;;19.57;32.52;102699.84;5018769;28;45277;-58
2022/01/11 08:37:55;;;;;;;;;7.25;7.25;;;;;19.56;32.87;102706.88;5036726;28;45615;-43
2022/01/11 08:40:20;;;;;;;;;5.75;5.75;;;;;19.56;32.74;102706.03;5036501;28;46627;-52
2022/01/11 08:42:46;;;;;;;;;8.00;8.00;;;;;19.56;32.93;102701.63;5036353;28;45385;-47
2022/01/11 08:45:12;;;;;;;;;7.25;7.25;;;;;19.56;32.46;102695.53;5036611;28;45401;-50
2022/01/11 08:47:37;;;;;;;;;7.00;6.75;;;;;19.57;33.04;102702.47;5036706;28;45563;-49
2022/01/11 08:50:06;;;;;;;;;10.25;8.00;;;;;19.57;32.55;102702.47;5018733;28;46134;-48
2022/01/11 08:52:32;;;;;;;;;4.00;4.00;;;;;19.55;32.67;102704.31;5036595;28;45250;-51
2022/01/11 08:54:57;;;;;;;;;9.00;9.00;;;;;19.53;32.70;102693.78;5036549;28;45388;-57
2022/01/11 08:57:23;;;;;;;;;8.50;8.00;;;;;19.54;32.80;102697.31;5036627;28;45208;-55
2022/01/11 08:59:49;;;;;;;;;9.75;8.00;;;;;19.54;32.59;102697.31;5036196;28;45687;-56
2022/01/11 09:02:15;;;;;;;;;10.00;8.00;;;;;19.54;32.70;102702.56;5036328;28;45758;-57
2022/01/11 09:04:41;;;;;;;;;8.50;7.00;;;;;19.52;32.74;102699.94;5036357;28;45573;-57
2022/01/11 09:07:07;;;;;;;;;8.00;8.00;;;;;19.51;32.76;102707.88;5036196;28;45293;-54
2022/01/11 09:09:32;;;;;;;;;4.50;3.50;;;;;19.51;32.87;102713.16;5036157;28;46440;-57
2022/01/11 09:12:03;;;;;;;;;12.00;10.50;;;;;19.51;32.54;102714.03;5036069;28;45407;-55
2022/01/11 09:14:30;;;;;;;;;12.75;9.00;;;;;19.50;32.94;102716.66;5036169;28;45210;-59
2022/01/11 09:16:56;;;;;;;;;7.00;7.00;;;;;19.48;32.45;102714.09;5036364;28;45259;-54
2022/01/11 09:19:22;;;;;;;;;11.25;8.25;;;;;19.48;32.58;102714.09;5035893;28;45333;-58
2022/01/11 09:21:48;;;;;;;;;8.75;7.50;;;;;19.46;32.60;102716.72;5035951;28;45344;-57
2022/01/11 09:24:19;;;;;;;;;14.00;8.75;;;;;19.46;32.64;102721.13;5036133;28;45887;-57
2022/01/11 09:26:45;;;;;;;;;10.00;9.75;;;;;19.46;32.82;102719.34;5036418;28;45218;-58
2022/01/11 09:29:10;;;;;;;;;9.00;9.00;;;;;19.45;32.52;102714.16;5035802;28;45491;-61
2022/01/11 09:31:36;;;;;;;;;8.75;8.25;;;;;19.40;32.89;102716.88;5038912;28;45410;-57
2022/01/11 09:34:02;;;;;;;;;10.00;9.00;;;;;19.42;32.91;102725.59;5021609;28;45183;-58
2022/01/11 09:36:28;;;;;;;;;9.00;9.00;;;;;19.41;32.58;102734.38;5039719;28;45352;-56
2022/01/11 09:38:54;;;;;;;;;10.25;9.00;;;;;19.41;32.57;102742.28;5039233;28;46487;-55
2022/01/11 09:41:19;;;;;;;;;15.00;10.00;;;;;19.39;32.69;102738.81;5039270;28;45464;-53
2022/01/11 09:43:45;;;;;;;;;8.50;8.50;;;;;19.38;32.90;102736.22;5039436;28;45404;-55
2022/01/11 09:46:12;;;;;;;;;10.00;8.50;;;;;19.39;32.82;102740.56;5039626;28;45615;-58
2022/01/11 09:48:37;;;;;;;;;9.50;9.00;;;;;19.37;32.52;102740.59;5039679;28;46434;-46
2022/01/11 09:51:03;;;;;;;;;13.75;11.00;;;;;19.36;32.81;102741.47;5021589;28;45271;-61
2022/01/11 09:53:29;;;;;;;;;12.75;10.00;;;;;19.36;32.69;102740.63;5039427;28;45457;-52
2022/01/11 09:55:54;;;;;;;;;12.50;10.50;;;;;19.34;32.88;102737.16;5039332;28;45214;-60
2022/01/11 09:58:20;;;;;;;;;10.25;10.25;;;;;19.33;32.52;102743.31;5039034;28;46296;-57
2022/01/11 10:00:46;;;;;;;;;9.00;8.00;;;;;19.34;32.49;102752.94;5039055;28;45440;-55
2022/01/11 10:03:13;;;;;;;;;11.75;10.75;;;;;19.31;32.96;102749.47;5038960;28;45304;-53
2022/01/11 10:05:39;;;;;;;;;11.00;8.50;;;;;19.29;32.85;102755.66;5021371;28;45613;-45
2022/01/11 10:08:28;;;;;;;;;16.00;11.25;;;;;19.32;32.98;102752.97;5038821;28;46450;-49
2022/01/11 10:10:58;;;;;;;;;12.25;11.75;;;;;19.29;33.04;102750.41;5020901;28;46032;-49
2022/01/11 10:13:39;;;;;;;;;10.50;9.00;;;;;19.31;33.10;102745.97;5021099;28;45364;-56
2022/01/11 10:16:20;;;;;;;;;10.50;10.25;;;;;19.31;32.81;102754.72;5021604;28;45277;-52
2022/01/11 10:18:46;;;;;;;;;11.25;11.00;;;;;19.30;33.13;102749.50;5038568;28;46190;-49
2022/01/11 10:21:40;;;;;;;;;10.00;10.00;;;;;19.29;33.00;102758.28;5038580;28;45476;-56
2022/01/11 10:24:35;;;;;;;;;14.25;13.00;;;;;19.31;32.83;102764.38;5039059;28;45390;-57
2022/01/11 10:27:05;;;;;;;;;16.00;13.25;;;;;19.32;33.21;102760.88;5036366;28;45317;-48
2022/01/11 10:29:40;;;;;;;;;13.25;11.25;;;;;19.32;32.77;102760.88;5038486;28;46638;-55
2022/01/11 10:32:35;;;;;;;;;13.00;13.00;;;;;19.33;32.94;102761.72;5038918;28;45862;-59
2022/01/11 10:35:14;;;;;;;;;12.50;12.00;;;;;19.35;33.00;102771.31;5036171;28;45445;-64
2022/01/11 10:37:42;;;;;;;;;15.50;13.25;;;;;19.33;33.00;102767.84;5038919;28;45377;-61
2022/01/11 10:40:35;;;;;;;;;14.75;13.00;;;;;19.33;33.01;102770.50;5020586;28;48240;-52
2022/01/11 10:43:12;;;;;;;;;14.25;11.00;;;;;19.30;32.58;102774.03;5038160;28;46080;-57
2022/01/11 10:45:40;;;;;;;;;18.50;13.25;;;;;19.29;32.66;102771.44;5038672;28;45347;-55
2022/01/11 10:48:11;;;;;;;;;12.50;10.25;;;;;19.25;32.39;102769.75;5020880;28;45616;-50
2022/01/11 10:50:44;;;;;;;;;11.25;11.25;;;;;19.25;32.74;102775.00;5038376;28;46202;-57
2022/01/11 10:53:14;;;;;;;;;12.00;11.25;;;;;19.26;32.64;102782.00;5038381;28;45431;-55
2022/01/11 10:55:41;;;;;;;;;13.75;11.50;;;;;19.24;32.51;102779.41;5038656;28;45248;-56
2022/01/11 10:58:10;;;;;;;;;10.50;10.50;;;;;19.22;32.88;102773.31;5038736;28;45513;-48
2022/01/11 11:00:42;;;;;;;;;12.25;11.50;;;;;19.24;32.52;102779.41;5037959;28;47267;-58
2022/01/11 11:03:19;;;;;;;;;15.00;12.25;;;;;19.23;32.87;102766.31;5038327;28;45932;-58
2022/01/11 11:05:48;;;;;;;;;12.00;11.25;;;;;19.22;32.49;102761.94;5038098;28;45418;-60
2022/01/11 11:08:16;;;;;;;;;14.75;13.25;;;;;19.22;32.70;102764.56;5037928;28;45610;-60
2022/01/11 11:10:46;;;;;;;;;14.00;14.00;;;;;19.22;32.74;102775.09;5038200;28;46466;-62
2022/01/11 11:13:42;;;;;;;;;15.75;12.00;;;;;19.22;32.63;102775.09;5038206;28;45375;-60
2022/01/11 11:16:07;;;;;;;;;15.75;12.25;;;;;19.21;32.64;102775.97;5017601;28;46121;-59
2022/01/11 11:18:38;;;;;;;;;14.75;11.25;;;;;19.21;32.94;102778.59;5019928;28;46230;-56
2022/01/11 11:21:12;;;;;;;;;18.25;13.75;;;;;19.19;32.65;102775.13;5037716;28;45438;-59
2022/01/11 11:23:38;;;;;;;;;16.50;12.25;;;;;19.17;33.00;102775.19;5020241;28;46142;-56
2022/01/11 11:26:04;;;;;;;;;14.75;12.75;;;;;19.16;32.69;102771.66;5037898;28;45415;-54